sensor_id;sensor_type;location;lat;lon;timestamp;temperature;humidity
59311;DHT22;45078;51.654;21.250;2022-12-16T00:02:00;-6.30;99.90
59311;DHT22;45078;51.654;21.250;2022-12-16T00:04:26;-6.20;99.90
59311;DHT22;45078;51.654;21.250;2022-12-16T00:06:52;-6.10;99.90
59311;DHT22;45078;51.654;21.250;2022-12-16T00:09:18;-6.10;99.90
59311;DHT22;45078;51.654;21.250;2022-12-16T00:11:44;-6.10;99.90
59311;DHT22;45078;51.654;21.250;2022-12-16T00:14:09;-6.00;99.90
59311;DHT22;45078;51.654;21.250;2022-12-16T00:16:35;-6.00;99.90
59311;DHT22;45078;51.654;21.250;2022-12-16T00:19:01;-5.90;99.90
59311;DHT22;45078;51.654;21.250;2022-12-16T00:21:27;-5.90;99.90
59311;DHT22;45078;51.654;21.250;2022-12-16T00:23:55;-5.80;99.90
59311;DHT22;45078;51.654;21.250;2022-12-16T00:26:21;-5.70;99.90
59311;DHT22;45078;51.654;21.250;2022-12-16T00:28:47;-5.60;99.90
59311;DHT22;45078;51.654;21.250;2022-12-16T00:31:13;-5.60;99.90
59311;DHT22;45078;51.654;21.250;2022-12-16T00:33:39;-5.50;99.90
59311;DHT22;45078;51.654;21.250;2022-12-16T00:36:05;-5.50;99.90
59311;DHT22;45078;51.654;21.250;2022-12-16T00:38:32;-5.50;99.90
59311;DHT22;45078;51.654;21.250;2022-12-16T00:40:57;-5.40;99.90
59311;DHT22;45078;51.654;21.250;2022-12-16T00:43:23;-5.40;99.90
59311;DHT22;45078;51.654;21.250;2022-12-16T00:45:49;-5.30;99.90
59311;DHT22;45078;51.654;21.250;2022-12-16T00:48:16;-5.30;99.90
59311;DHT22;45078;51.654;21.250;2022-12-16T00:50:47;-5.30;99.90
59311;DHT22;45078;51.654;21.250;2022-12-16T00:53:14;-5.30;99.90
59311;DHT22;45078;51.654;21.250;2022-12-16T00:55:39;-5.30;99.90
59311;DHT22;45078;51.654;21.250;2022-12-16T00:58:05;-5.20;99.90
59311;DHT22;45078;51.654;21.250;2022-12-16T01:00:31;-5.20;99.90
59311;DHT22;45078;51.654;21.250;2022-12-16T01:02:57;-5.20;99.90
59311;DHT22;45078;51.654;21.250;2022-12-16T01:05:23;-5.10;99.90
59311;DHT22;45078;51.654;21.250;2022-12-16T01:07:55;-5.10;99.90
59311;DHT22;45078;51.654;21.250;2022-12-16T01:10:23;-5.10;99.90
59311;DHT22;45078;51.654;21.250;2022-12-16T01:12:49;-5.10;99.90
59311;DHT22;45078;51.654;21.250;2022-12-16T01:15:15;-5.10;99.90
59311;DHT22;45078;51.654;21.250;2022-12-16T01:17:41;-5.10;99.90
59311;DHT22;45078;51.654;21.250;2022-12-16T01:20:08;-5.10;99.90
59311;DHT22;45078;51.654;21.250;2022-12-16T01:22:34;-5.10;99.90
59311;DHT22;45078;51.654;21.250;2022-12-16T01:25:01;-5.10;99.90
59311;DHT22;45078;51.654;21.250;2022-12-16T01:27:27;-5.10;99.90
59311;DHT22;45078;51.654;21.250;2022-12-16T01:29:54;-5.10;99.90
59311;DHT22;45078;51.654;21.250;2022-12-16T01:32:20;-5.10;99.90
59311;DHT22;45078;51.654;21.250;2022-12-16T01:34:50;-5.10;99.90
59311;DHT22;45078;51.654;21.250;2022-12-16T01:37:16;-5.10;99.90
59311;DHT22;45078;51.654;21.250;2022-12-16T01:39:42;-5.10;99.90
59311;DHT22;45078;51.654;21.250;2022-12-16T01:42:15;-5.00;99.90
59311;DHT22;45078;51.654;21.250;2022-12-16T01:44:44;-5.00;99.90
59311;DHT22;45078;51.654;21.250;2022-12-16T01:47:21;-5.00;99.90
59311;DHT22;45078;51.654;21.250;2022-12-16T01:49:58;-5.00;99.90
59311;DHT22;45078;51.654;21.250;2022-12-16T01:52:31;-5.00;99.90
59311;DHT22;45078;51.654;21.250;2022-12-16T01:55:34;-4.90;99.90
59311;DHT22;45078;51.654;21.250;2022-12-16T01:58:08;-5.00;99.90
59311;DHT22;45078;51.654;21.250;2022-12-16T02:00:36;-5.00;99.90
59311;DHT22;45078;51.654;21.250;2022-12-16T02:03:02;-4.90;99.90
59311;DHT22;45078;51.654;21.250;2022-12-16T02:05:29;-4.90;99.90
59311;DHT22;45078;51.654;21.250;2022-12-16T02:35:08;-4.90;99.90
59311;DHT22;45078;51.654;21.250;2022-12-16T02:37:44;-4.80;99.90
59311;DHT22;45078;51.654;21.250;2022-12-16T02:43:21;-4.80;99.90
59311;DHT22;45078;51.654;21.250;2022-12-16T02:45:53;-4.80;99.90
59311;DHT22;45078;51.654;21.250;2022-12-16T02:48:19;-4.70;99.90
59311;DHT22;45078;51.654;21.250;2022-12-16T02:50:50;-4.80;99.90
59311;DHT22;45078;51.654;21.250;2022-12-16T02:53:20;-4.70;99.90
59311;DHT22;45078;51.654;21.250;2022-12-16T02:58:35;-4.70;99.90
59311;DHT22;45078;51.654;21.250;2022-12-16T03:01:26;-4.70;99.90
59311;DHT22;45078;51.654;21.250;2022-12-16T03:04:05;-4.70;99.90
59311;DHT22;45078;51.654;21.250;2022-12-16T03:06:35;-4.70;99.90
59311;DHT22;45078;51.654;21.250;2022-12-16T03:09:05;-4.70;99.90
59311;DHT22;45078;51.654;21.250;2022-12-16T03:11:33;-4.60;99.90
59311;DHT22;45078;51.654;21.250;2022-12-16T03:14:00;-4.60;99.90
59311;DHT22;45078;51.654;21.250;2022-12-16T03:16:30;-4.60;99.90
59311;DHT22;45078;51.654;21.250;2022-12-16T03:19:00;-4.60;99.90
59311;DHT22;45078;51.654;21.250;2022-12-16T03:21:33;-4.60;99.90
59311;DHT22;45078;51.654;21.250;2022-12-16T03:24:05;-4.60;99.90
59311;DHT22;45078;51.654;21.250;2022-12-16T03:26:39;-4.50;99.90
59311;DHT22;45078;51.654;21.250;2022-12-16T03:29:36;-4.50;99.90
59311;DHT22;45078;51.654;21.250;2022-12-16T03:32:14;-4.40;99.90
59311;DHT22;45078;51.654;21.250;2022-12-16T03:34:51;-4.40;99.90
59311;DHT22;45078;51.654;21.250;2022-12-16T03:37:20;-4.40;99.90
59311;DHT22;45078;51.654;21.250;2022-12-16T03:39:50;-4.40;99.90
59311;DHT22;45078;51.654;21.250;2022-12-16T03:42:17;-4.40;99.90
59311;DHT22;45078;51.654;21.250;2022-12-16T03:44:44;-4.40;99.90
59311;DHT22;45078;51.654;21.250;2022-12-16T03:47:11;-4.40;99.90
59311;DHT22;45078;51.654;21.250;2022-12-16T03:49:38;-4.30;99.90
59311;DHT22;45078;51.654;21.250;2022-12-16T03:52:04;-4.40;99.90
59311;DHT22;45078;51.654;21.250;2022-12-16T03:54:30;-4.30;99.90
59311;DHT22;45078;51.654;21.250;2022-12-16T03:56:56;-4.30;99.90
59311;DHT22;45078;51.654;21.250;2022-12-16T03:59:22;-4.30;99.90
59311;DHT22;45078;51.654;21.250;2022-12-16T04:01:48;-4.30;99.90
59311;DHT22;45078;51.654;21.250;2022-12-16T04:04:15;-4.30;99.90
59311;DHT22;45078;51.654;21.250;2022-12-16T04:06:41;-4.30;99.90
59311;DHT22;45078;51.654;21.250;2022-12-16T04:09:07;-4.30;99.90
59311;DHT22;45078;51.654;21.250;2022-12-16T04:11:32;-4.30;99.90
59311;DHT22;45078;51.654;21.250;2022-12-16T04:14:17;-4.30;99.90
59311;DHT22;45078;51.654;21.250;2022-12-16T04:17:01;-4.30;99.90
59311;DHT22;45078;51.654;21.250;2022-12-16T04:19:46;-4.30;99.90
59311;DHT22;45078;51.654;21.250;2022-12-16T04:22:35;-4.20;99.90
59311;DHT22;45078;51.654;21.250;2022-12-16T04:25:23;-4.20;99.90
59311;DHT22;45078;51.654;21.250;2022-12-16T04:27:49;-4.20;99.90
59311;DHT22;45078;51.654;21.250;2022-12-16T04:30:16;-4.30;99.90
59311;DHT22;45078;51.654;21.250;2022-12-16T04:33:00;-4.30;99.90
59311;DHT22;45078;51.654;21.250;2022-12-16T04:35:46;-4.20;99.90
59311;DHT22;45078;51.654;21.250;2022-12-16T04:38:31;-4.30;99.90
59311;DHT22;45078;51.654;21.250;2022-12-16T04:41:15;-4.20;99.90
59311;DHT22;45078;51.654;21.250;2022-12-16T04:44:00;-4.20;99.90
59311;DHT22;45078;51.654;21.250;2022-12-16T04:46:44;-4.20;99.90
59311;DHT22;45078;51.654;21.250;2022-12-16T04:49:28;-4.20;99.90
59311;DHT22;45078;51.654;21.250;2022-12-16T04:52:13;-4.20;99.90
59311;DHT22;45078;51.654;21.250;2022-12-16T04:54:57;-4.10;99.90
59311;DHT22;45078;51.654;21.250;2022-12-16T04:58:01;-4.10;99.90
59311;DHT22;45078;51.654;21.250;2022-12-16T05:00:46;-4.20;99.90
59311;DHT22;45078;51.654;21.250;2022-12-16T05:03:32;-4.10;99.90
59311;DHT22;45078;51.654;21.250;2022-12-16T05:06:17;-4.10;99.90
59311;DHT22;45078;51.654;21.250;2022-12-16T05:09:02;-4.10;99.90
59311;DHT22;45078;51.654;21.250;2022-12-16T05:11:46;-4.00;99.90
59311;DHT22;45078;51.654;21.250;2022-12-16T05:14:31;-4.00;99.90
59311;DHT22;45078;51.654;21.250;2022-12-16T05:17:15;-3.90;99.90
59311;DHT22;45078;51.654;21.250;2022-12-16T05:20:00;-3.90;99.90
59311;DHT22;45078;51.654;21.250;2022-12-16T05:22:44;-3.90;99.90
59311;DHT22;45078;51.654;21.250;2022-12-16T05:25:28;-3.80;99.90
59311;DHT22;45078;51.654;21.250;2022-12-16T05:28:13;-3.70;99.90
59311;DHT22;45078;51.654;21.250;2022-12-16T05:30:57;-3.70;99.90
59311;DHT22;45078;51.654;21.250;2022-12-16T05:33:42;-3.70;99.90
59311;DHT22;45078;51.654;21.250;2022-12-16T05:36:26;-3.60;99.90
59311;DHT22;45078;51.654;21.250;2022-12-16T05:39:10;-3.60;99.90
59311;DHT22;45078;51.654;21.250;2022-12-16T05:41:55;-3.60;99.90
59311;DHT22;45078;51.654;21.250;2022-12-16T05:44:39;-3.60;99.90
59311;DHT22;45078;51.654;21.250;2022-12-16T05:47:24;-3.60;99.90
59311;DHT22;45078;51.654;21.250;2022-12-16T05:50:09;-3.60;99.90
59311;DHT22;45078;51.654;21.250;2022-12-16T05:52:55;-3.50;99.90
59311;DHT22;45078;51.654;21.250;2022-12-16T05:55:40;-3.60;99.90
59311;DHT22;45078;51.654;21.250;2022-12-16T05:58:24;-3.50;99.90
59311;DHT22;45078;51.654;21.250;2022-12-16T06:01:09;-3.50;99.90
59311;DHT22;45078;51.654;21.250;2022-12-16T06:03:54;-3.50;99.90
59311;DHT22;45078;51.654;21.250;2022-12-16T06:06:38;-3.60;99.90
59311;DHT22;45078;51.654;21.250;2022-12-16T06:09:22;-3.50;99.90
59311;DHT22;45078;51.654;21.250;2022-12-16T06:12:07;-3.50;99.90
59311;DHT22;45078;51.654;21.250;2022-12-16T06:14:51;-3.50;99.90
59311;DHT22;45078;51.654;21.250;2022-12-16T06:17:36;-3.50;99.90
59311;DHT22;45078;51.654;21.250;2022-12-16T06:20:20;-3.50;99.90
59311;DHT22;45078;51.654;21.250;2022-12-16T06:23:05;-3.40;99.90
59311;DHT22;45078;51.654;21.250;2022-12-16T06:25:49;-3.40;99.90
59311;DHT22;45078;51.654;21.250;2022-12-16T06:28:34;-3.30;99.90
59311;DHT22;45078;51.654;21.250;2022-12-16T06:31:18;-3.40;99.90
59311;DHT22;45078;51.654;21.250;2022-12-16T06:34:02;-3.30;99.90
59311;DHT22;45078;51.654;21.250;2022-12-16T06:36:48;-3.30;99.90
59311;DHT22;45078;51.654;21.250;2022-12-16T06:39:33;-3.30;99.90
59311;DHT22;45078;51.654;21.250;2022-12-16T06:42:17;-3.30;99.90
59311;DHT22;45078;51.654;21.250;2022-12-16T06:45:01;-3.30;99.90
59311;DHT22;45078;51.654;21.250;2022-12-16T06:47:45;-3.20;99.90
59311;DHT22;45078;51.654;21.250;2022-12-16T06:50:29;-3.20;99.90
59311;DHT22;45078;51.654;21.250;2022-12-16T06:53:14;-3.20;99.90
59311;DHT22;45078;51.654;21.250;2022-12-16T06:55:58;-3.20;99.90
59311;DHT22;45078;51.654;21.250;2022-12-16T06:58:43;-3.20;99.90
59311;DHT22;45078;51.654;21.250;2022-12-16T07:01:27;-3.20;99.90
59311;DHT22;45078;51.654;21.250;2022-12-16T07:04:12;-3.20;99.90
59311;DHT22;45078;51.654;21.250;2022-12-16T07:06:56;-3.20;99.90
59311;DHT22;45078;51.654;21.250;2022-12-16T07:09:40;-3.20;99.90
59311;DHT22;45078;51.654;21.250;2022-12-16T07:12:25;-3.20;99.90
59311;DHT22;45078;51.654;21.250;2022-12-16T07:15:10;-3.10;99.90
59311;DHT22;45078;51.654;21.250;2022-12-16T07:17:54;-3.10;99.90
59311;DHT22;45078;51.654;21.250;2022-12-16T07:20:39;-3.10;99.90
59311;DHT22;45078;51.654;21.250;2022-12-16T07:23:23;-3.10;99.90
59311;DHT22;45078;51.654;21.250;2022-12-16T07:26:08;-3.10;99.90
59311;DHT22;45078;51.654;21.250;2022-12-16T07:28:52;-3.10;99.90
59311;DHT22;45078;51.654;21.250;2022-12-16T07:31:36;-3.10;99.90
59311;DHT22;45078;51.654;21.250;2022-12-16T07:34:21;-3.10;99.90
59311;DHT22;45078;51.654;21.250;2022-12-16T07:37:05;-3.00;99.90
59311;DHT22;45078;51.654;21.250;2022-12-16T07:39:49;-3.00;99.90
59311;DHT22;45078;51.654;21.250;2022-12-16T07:42:33;-3.00;99.90
59311;DHT22;45078;51.654;21.250;2022-12-16T07:45:18;-3.00;99.90
59311;DHT22;45078;51.654;21.250;2022-12-16T07:48:02;-2.90;99.90
59311;DHT22;45078;51.654;21.250;2022-12-16T07:50:46;-2.90;99.90
59311;DHT22;45078;51.654;21.250;2022-12-16T07:53:32;-2.90;99.90
59311;DHT22;45078;51.654;21.250;2022-12-16T07:56:17;-2.90;99.90
59311;DHT22;45078;51.654;21.250;2022-12-16T07:59:01;-2.90;99.90
59311;DHT22;45078;51.654;21.250;2022-12-16T08:01:46;-2.90;99.90
59311;DHT22;45078;51.654;21.250;2022-12-16T08:04:30;-2.90;99.90
59311;DHT22;45078;51.654;21.250;2022-12-16T08:07:14;-2.80;99.90
59311;DHT22;45078;51.654;21.250;2022-12-16T08:09:58;-2.90;99.90
59311;DHT22;45078;51.654;21.250;2022-12-16T08:12:43;-2.90;99.90
59311;DHT22;45078;51.654;21.250;2022-12-16T08:15:27;-2.80;99.90
59311;DHT22;45078;51.654;21.250;2022-12-16T08:18:19;-2.80;99.90
59311;DHT22;45078;51.654;21.250;2022-12-16T08:21:04;-2.80;99.90
59311;DHT22;45078;51.654;21.250;2022-12-16T08:23:48;-2.80;99.90
59311;DHT22;45078;51.654;21.250;2022-12-16T08:26:32;-2.70;99.90
59311;DHT22;45078;51.654;21.250;2022-12-16T08:29:24;-2.70;99.90
59311;DHT22;45078;51.654;21.250;2022-12-16T08:32:08;-2.60;99.90
59311;DHT22;45078;51.654;21.250;2022-12-16T08:34:53;-2.60;99.90
59311;DHT22;45078;51.654;21.250;2022-12-16T08:37:37;-2.60;99.90
59311;DHT22;45078;51.654;21.250;2022-12-16T08:40:21;-2.60;99.90
59311;DHT22;45078;51.654;21.250;2022-12-16T08:43:06;-2.60;99.90
59311;DHT22;45078;51.654;21.250;2022-12-16T08:45:53;-2.60;99.90
59311;DHT22;45078;51.654;21.250;2022-12-16T08:48:45;-2.60;99.90
59311;DHT22;45078;51.654;21.250;2022-12-16T08:51:29;-2.50;99.90
59311;DHT22;45078;51.654;21.250;2022-12-16T08:54:14;-2.50;99.90
59311;DHT22;45078;51.654;21.250;2022-12-16T08:56:58;-2.50;99.90
59311;DHT22;45078;51.654;21.250;2022-12-16T08:59:42;-2.50;99.90
59311;DHT22;45078;51.654;21.250;2022-12-16T09:02:27;-2.50;99.90
59311;DHT22;45078;51.654;21.250;2022-12-16T09:05:11;-2.40;99.90
59311;DHT22;45078;51.654;21.250;2022-12-16T09:07:59;-2.40;99.90
59311;DHT22;45078;51.654;21.250;2022-12-16T09:10:44;-2.40;99.90
59311;DHT22;45078;51.654;21.250;2022-12-16T09:13:29;-2.40;99.90
59311;DHT22;45078;51.654;21.250;2022-12-16T09:16:13;-2.30;99.90
59311;DHT22;45078;51.654;21.250;2022-12-16T09:18:58;-2.30;99.90
59311;DHT22;45078;51.654;21.250;2022-12-16T09:21:43;-2.20;99.90
59311;DHT22;45078;51.654;21.250;2022-12-16T09:24:27;-2.20;99.90
59311;DHT22;45078;51.654;21.250;2022-12-16T09:27:11;-2.20;99.90
59311;DHT22;45078;51.654;21.250;2022-12-16T09:29:56;-2.20;99.90
59311;DHT22;45078;51.654;21.250;2022-12-16T09:32:44;-2.20;99.90
59311;DHT22;45078;51.654;21.250;2022-12-16T09:35:29;-2.20;99.90
59311;DHT22;45078;51.654;21.250;2022-12-16T09:38:14;-2.20;99.90
59311;DHT22;45078;51.654;21.250;2022-12-16T09:50:29;-2.10;99.90
59311;DHT22;45078;51.654;21.250;2022-12-16T09:53:18;-2.00;99.90
59311;DHT22;45078;51.654;21.250;2022-12-16T09:56:09;-2.00;99.90
59311;DHT22;45078;51.654;21.250;2022-12-16T09:58:59;-2.00;99.90
59311;DHT22;45078;51.654;21.250;2022-12-16T10:01:45;-1.90;99.90
59311;DHT22;45078;51.654;21.250;2022-12-16T10:04:30;-1.90;99.90
59311;DHT22;45078;51.654;21.250;2022-12-16T10:07:19;-2.00;99.90
59311;DHT22;45078;51.654;21.250;2022-12-16T10:17:09;-1.90;99.90
59311;DHT22;45078;51.654;21.250;2022-12-16T10:22:39;-2.00;99.90
59311;DHT22;45078;51.654;21.250;2022-12-16T10:25:34;-2.00;99.90
59311;DHT22;45078;51.654;21.250;2022-12-16T10:29:04;-2.00;99.90
59311;DHT22;45078;51.654;21.250;2022-12-16T10:31:28;-2.00;99.90
59311;DHT22;45078;51.654;21.250;2022-12-16T10:34:20;-1.90;99.90
59311;DHT22;45078;51.654;21.250;2022-12-16T10:37:19;-1.90;99.90
59311;DHT22;45078;51.654;21.250;2022-12-16T10:40:05;-2.00;99.90
59311;DHT22;45078;51.654;21.250;2022-12-16T10:43:00;-1.90;99.90
59311;DHT22;45078;51.654;21.250;2022-12-16T10:45:49;-1.80;99.90
59311;DHT22;45078;51.654;21.250;2022-12-16T10:48:34;-1.80;99.90
59311;DHT22;45078;51.654;21.250;2022-12-16T10:51:21;-1.70;99.90
59311;DHT22;45078;51.654;21.250;2022-12-16T10:54:27;-1.70;99.90
59311;DHT22;45078;51.654;21.250;2022-12-16T11:00:36;-1.70;99.90
59311;DHT22;45078;51.654;21.250;2022-12-16T11:03:24;-1.70;99.90
59311;DHT22;45078;51.654;21.250;2022-12-16T11:06:10;-1.70;99.90
59311;DHT22;45078;51.654;21.250;2022-12-16T11:09:26;-1.70;99.90
59311;DHT22;45078;51.654;21.250;2022-12-16T11:12:29;-1.70;99.90
59311;DHT22;45078;51.654;21.250;2022-12-16T11:15:33;-1.70;99.90
59311;DHT22;45078;51.654;21.250;2022-12-16T11:18:20;-1.70;99.90
59311;DHT22;45078;51.654;21.250;2022-12-16T11:21:16;-1.70;99.90
59311;DHT22;45078;51.654;21.250;2022-12-16T11:24:15;-1.70;99.90
59311;DHT22;45078;51.654;21.250;2022-12-16T11:27:02;-1.70;99.90
59311;DHT22;45078;51.654;21.250;2022-12-16T11:29:59;-1.80;99.90
59311;DHT22;45078;51.654;21.250;2022-12-16T11:32:53;-1.70;99.90
59311;DHT22;45078;51.654;21.250;2022-12-16T11:35:45;-1.70;99.90
59311;DHT22;45078;51.654;21.250;2022-12-16T11:38:51;-1.70;99.90
59311;DHT22;45078;51.654;21.250;2022-12-16T11:41:46;-1.70;99.90
59311;DHT22;45078;51.654;21.250;2022-12-16T11:44:39;-1.60;99.90
59311;DHT22;45078;51.654;21.250;2022-12-16T11:47:57;-1.60;99.90
59311;DHT22;45078;51.654;21.250;2022-12-16T11:50:54;-1.50;99.90
59311;DHT22;45078;51.654;21.250;2022-12-16T11:53:49;-1.40;99.90
59311;DHT22;45078;51.654;21.250;2022-12-16T11:56:38;-1.40;99.90
59311;DHT22;45078;51.654;21.250;2022-12-16T12:05:37;-1.40;99.90
59311;DHT22;45078;51.654;21.250;2022-12-16T12:18:29;-1.30;99.90
59311;DHT22;45078;51.654;21.250;2022-12-16T12:21:24;-1.30;99.90
59311;DHT22;45078;51.654;21.250;2022-12-16T12:27:17;-1.30;99.90
59311;DHT22;45078;51.654;21.250;2022-12-16T12:30:13;-1.20;99.90
59311;DHT22;45078;51.654;21.250;2022-12-16T12:35:57;-1.20;99.90
59311;DHT22;45078;51.654;21.250;2022-12-16T12:39:14;-1.20;99.90
59311;DHT22;45078;51.654;21.250;2022-12-16T12:45:22;-1.20;99.90
59311;DHT22;45078;51.654;21.250;2022-12-16T12:57:21;-1.10;99.90
59311;DHT22;45078;51.654;21.250;2022-12-16T13:00:17;-1.10;99.90
59311;DHT22;45078;51.654;21.250;2022-12-16T13:05:59;-1.10;99.90
59311;DHT22;45078;51.654;21.250;2022-12-16T13:11:32;-1.00;99.90
59311;DHT22;45078;51.654;21.250;2022-12-16T13:17:21;-1.10;99.90
59311;DHT22;45078;51.654;21.250;2022-12-16T13:23:34;-1.10;99.90
59311;DHT22;45078;51.654;21.250;2022-12-16T13:26:22;-1.10;99.90
59311;DHT22;45078;51.654;21.250;2022-12-16T13:29:26;-1.10;99.90
59311;DHT22;45078;51.654;21.250;2022-12-16T13:35:03;-1.20;99.90
59311;DHT22;45078;51.654;21.250;2022-12-16T13:40:59;-1.20;99.90
59311;DHT22;45078;51.654;21.250;2022-12-16T13:43:46;-1.20;99.90
59311;DHT22;45078;51.654;21.250;2022-12-16T13:46:53;-1.20;99.90
59311;DHT22;45078;51.654;21.250;2022-12-16T13:49:43;-1.20;99.90
59311;DHT22;45078;51.654;21.250;2022-12-16T13:52:50;-1.30;99.90
59311;DHT22;45078;51.654;21.250;2022-12-16T13:55:56;-1.30;99.90
59311;DHT22;45078;51.654;21.250;2022-12-16T13:58:50;-1.30;99.90
59311;DHT22;45078;51.654;21.250;2022-12-16T14:01:55;-1.30;99.90
59311;DHT22;45078;51.654;21.250;2022-12-16T14:04:46;-1.30;99.90
59311;DHT22;45078;51.654;21.250;2022-12-16T14:07:33;-1.30;99.90
59311;DHT22;45078;51.654;21.250;2022-12-16T14:10:31;-1.30;99.90
59311;DHT22;45078;51.654;21.250;2022-12-16T14:22:25;-1.40;99.90
59311;DHT22;45078;51.654;21.250;2022-12-16T14:25:16;-1.40;99.90
59311;DHT22;45078;51.654;21.250;2022-12-16T14:31:25;-1.40;99.90
59311;DHT22;45078;51.654;21.250;2022-12-16T14:34:32;-1.40;99.90
59311;DHT22;45078;51.654;21.250;2022-12-16T14:37:23;-1.50;99.90
59311;DHT22;45078;51.654;21.250;2022-12-16T14:40:28;-1.50;99.90
59311;DHT22;45078;51.654;21.250;2022-12-16T14:43:18;-1.50;99.90
59311;DHT22;45078;51.654;21.250;2022-12-16T14:46:04;-1.50;99.90
59311;DHT22;45078;51.654;21.250;2022-12-16T14:48:49;-1.50;99.90
59311;DHT22;45078;51.654;21.250;2022-12-16T14:51:35;-1.50;99.90
59311;DHT22;45078;51.654;21.250;2022-12-16T14:54:30;-1.50;99.90
59311;DHT22;45078;51.654;21.250;2022-12-16T14:57:20;-1.50;99.90
59311;DHT22;45078;51.654;21.250;2022-12-16T15:02:58;-1.50;99.90
59311;DHT22;45078;51.654;21.250;2022-12-16T15:05:44;-1.50;99.90
59311;DHT22;45078;51.654;21.250;2022-12-16T15:08:32;-1.60;99.90
59311;DHT22;45078;51.654;21.250;2022-12-16T15:11:22;-1.60;99.90
59311;DHT22;45078;51.654;21.250;2022-12-16T15:14:11;-1.60;99.90
59311;DHT22;45078;51.654;21.250;2022-12-16T15:16:56;-1.60;99.90
59311;DHT22;45078;51.654;21.250;2022-12-16T15:19:47;-1.60;99.90
59311;DHT22;45078;51.654;21.250;2022-12-16T15:22:33;-1.60;99.90
59311;DHT22;45078;51.654;21.250;2022-12-16T15:25:25;-1.60;99.90
59311;DHT22;45078;51.654;21.250;2022-12-16T15:28:25;-1.50;99.90
59311;DHT22;45078;51.654;21.250;2022-12-16T15:31:22;-1.50;99.90
59311;DHT22;45078;51.654;21.250;2022-12-16T15:37:03;-1.60;99.90
59311;DHT22;45078;51.654;21.250;2022-12-16T15:39:47;-1.70;99.90
59311;DHT22;45078;51.654;21.250;2022-12-16T15:42:32;-1.60;99.90
59311;DHT22;45078;51.654;21.250;2022-12-16T15:45:27;-1.60;99.90
59311;DHT22;45078;51.654;21.250;2022-12-16T15:48:20;-1.70;99.90
59311;DHT22;45078;51.654;21.250;2022-12-16T15:51:29;-1.70;99.90
59311;DHT22;45078;51.654;21.250;2022-12-16T15:54:17;-1.70;99.90
59311;DHT22;45078;51.654;21.250;2022-12-16T15:57:01;-1.70;99.90
59311;DHT22;45078;51.654;21.250;2022-12-16T15:59:56;-1.70;99.90
59311;DHT22;45078;51.654;21.250;2022-12-16T16:02:48;-1.70;99.90
59311;DHT22;45078;51.654;21.250;2022-12-16T16:05:35;-1.70;99.90
59311;DHT22;45078;51.654;21.250;2022-12-16T16:08:19;-1.70;99.90
59311;DHT22;45078;51.654;21.250;2022-12-16T16:11:03;-1.80;99.90
59311;DHT22;45078;51.654;21.250;2022-12-16T16:13:48;-1.70;99.90
59311;DHT22;45078;51.654;21.250;2022-12-16T16:16:32;-1.70;99.90
59311;DHT22;45078;51.654;21.250;2022-12-16T16:19:23;-1.80;99.90
59311;DHT22;45078;51.654;21.250;2022-12-16T16:22:14;-1.80;99.90
59311;DHT22;45078;51.654;21.250;2022-12-16T16:24:59;-1.80;99.90
59311;DHT22;45078;51.654;21.250;2022-12-16T16:27:43;-1.80;99.90
59311;DHT22;45078;51.654;21.250;2022-12-16T16:30:28;-1.80;99.90
59311;DHT22;45078;51.654;21.250;2022-12-16T16:33:12;-1.70;99.90
59311;DHT22;45078;51.654;21.250;2022-12-16T16:35:56;-1.80;99.90
59311;DHT22;45078;51.654;21.250;2022-12-16T16:38:41;-1.70;99.90
59311;DHT22;45078;51.654;21.250;2022-12-16T16:41:25;-1.80;99.90
59311;DHT22;45078;51.654;21.250;2022-12-16T16:44:10;-1.80;99.90
59311;DHT22;45078;51.654;21.250;2022-12-16T16:46:55;-1.90;99.90
59311;DHT22;45078;51.654;21.250;2022-12-16T16:49:43;-1.90;99.90
59311;DHT22;45078;51.654;21.250;2022-12-16T16:52:29;-1.90;99.90
59311;DHT22;45078;51.654;21.250;2022-12-16T16:55:19;-2.00;99.90
59311;DHT22;45078;51.654;21.250;2022-12-16T16:58:13;-2.00;99.90
59311;DHT22;45078;51.654;21.250;2022-12-16T17:00:58;-1.90;99.90
59311;DHT22;45078;51.654;21.250;2022-12-16T17:03:43;-1.90;99.90
59311;DHT22;45078;51.654;21.250;2022-12-16T17:06:27;-1.90;99.90
59311;DHT22;45078;51.654;21.250;2022-12-16T17:09:11;-1.90;99.90
59311;DHT22;45078;51.654;21.250;2022-12-16T17:11:56;-1.90;99.90
59311;DHT22;45078;51.654;21.250;2022-12-16T17:14:40;-2.00;99.90
59311;DHT22;45078;51.654;21.250;2022-12-16T17:17:25;-2.00;99.90
59311;DHT22;45078;51.654;21.250;2022-12-16T17:20:14;-2.00;99.90
59311;DHT22;45078;51.654;21.250;2022-12-16T17:22:59;-2.00;99.90
59311;DHT22;45078;51.654;21.250;2022-12-16T17:25:44;-2.00;99.90
59311;DHT22;45078;51.654;21.250;2022-12-16T17:28:28;-2.00;99.90
59311;DHT22;45078;51.654;21.250;2022-12-16T17:31:12;-2.00;99.90
59311;DHT22;45078;51.654;21.250;2022-12-16T17:33:56;-2.00;99.90
59311;DHT22;45078;51.654;21.250;2022-12-16T17:36:41;-2.00;99.90
59311;DHT22;45078;51.654;21.250;2022-12-16T17:39:25;-2.00;99.90
59311;DHT22;45078;51.654;21.250;2022-12-16T17:42:09;-1.90;99.90
59311;DHT22;45078;51.654;21.250;2022-12-16T17:44:54;-1.90;99.90
59311;DHT22;45078;51.654;21.250;2022-12-16T17:47:38;-2.00;99.90
59311;DHT22;45078;51.654;21.250;2022-12-16T17:50:22;-2.00;99.90
59311;DHT22;45078;51.654;21.250;2022-12-16T17:53:07;-2.00;99.90
59311;DHT22;45078;51.654;21.250;2022-12-16T17:55:51;-2.00;99.90
59311;DHT22;45078;51.654;21.250;2022-12-16T17:58:37;-2.00;99.90
59311;DHT22;45078;51.654;21.250;2022-12-16T18:01:22;-2.00;99.90
59311;DHT22;45078;51.654;21.250;2022-12-16T18:04:08;-2.00;99.90
59311;DHT22;45078;51.654;21.250;2022-12-16T18:06:53;-2.00;99.90
59311;DHT22;45078;51.654;21.250;2022-12-16T18:09:37;-2.00;99.90
59311;DHT22;45078;51.654;21.250;2022-12-16T18:12:22;-2.00;99.90
59311;DHT22;45078;51.654;21.250;2022-12-16T18:15:08;-2.00;99.90
59311;DHT22;45078;51.654;21.250;2022-12-16T18:17:52;-2.00;99.90
59311;DHT22;45078;51.654;21.250;2022-12-16T18:20:36;-2.00;99.90
59311;DHT22;45078;51.654;21.250;2022-12-16T18:23:21;-2.10;99.90
59311;DHT22;45078;51.654;21.250;2022-12-16T18:26:08;-2.10;99.90
59311;DHT22;45078;51.654;21.250;2022-12-16T18:28:54;-2.10;99.90
59311;DHT22;45078;51.654;21.250;2022-12-16T18:31:39;-2.10;99.90
59311;DHT22;45078;51.654;21.250;2022-12-16T18:34:25;-2.10;99.90
59311;DHT22;45078;51.654;21.250;2022-12-16T18:37:12;-2.20;99.90
59311;DHT22;45078;51.654;21.250;2022-12-16T18:39:57;-2.10;99.90
59311;DHT22;45078;51.654;21.250;2022-12-16T18:42:41;-2.10;99.90
59311;DHT22;45078;51.654;21.250;2022-12-16T18:45:26;-2.20;99.90
59311;DHT22;45078;51.654;21.250;2022-12-16T18:48:10;-2.20;99.90
59311;DHT22;45078;51.654;21.250;2022-12-16T18:50:57;-2.20;99.90
59311;DHT22;45078;51.654;21.250;2022-12-16T18:53:42;-2.20;99.90
59311;DHT22;45078;51.654;21.250;2022-12-16T18:56:29;-2.20;99.90
59311;DHT22;45078;51.654;21.250;2022-12-16T18:59:14;-2.20;99.90
59311;DHT22;45078;51.654;21.250;2022-12-16T19:01:59;-2.20;99.90